createdAt,value
2018-08-13T00:03:31.532Z,43.8
2018-08-13T00:13:45.842Z,44.0
2018-08-13T00:24:34.208Z,43.9
2018-08-13T00:34:52.204Z,44.4
2018-08-13T00:45:06.302Z,42.4
2018-08-13T00:55:20.650Z,42.7
2018-08-13T01:06:06.323Z,42.6
2018-08-13T01:16:51.674Z,43.6
2018-08-13T01:27:10.257Z,41.7
2018-08-13T01:37:25.391Z,41.9
2018-08-13T01:47:51.961Z,41.7
2018-08-13T01:58:05.634Z,42.3
2018-08-13T02:09:03.748Z,42.1
2018-08-13T02:19:17.418Z,41.4
2018-08-13T02:29:34.900Z,41.3
2018-08-13T02:39:53.686Z,42.0
2018-08-13T02:50:07.452Z,42.3
2018-08-13T03:00:24.421Z,41.8
2018-08-13T03:10:40.704Z,42.3
2018-08-13T03:32:31.355Z,41.0
2018-08-13T03:42:45.394Z,41.6
2018-08-13T03:53:00.381Z,41.4
2018-08-13T04:03:14.057Z,41.5
2018-08-13T04:13:27.830Z,41.2
2018-08-13T04:24:12.440Z,41.3
2018-08-13T04:35:04.264Z,41.1
2018-08-13T04:45:17.953Z,40.8
2018-08-13T04:55:32.138Z,40.8
2018-08-13T05:05:43.576Z,41.2
2018-08-13T05:15:57.645Z,41.7
2018-08-13T05:26:11.853Z,42.3
2018-08-13T05:36:56.654Z,43.0
2018-08-13T05:47:10.074Z,42.3
2018-08-13T05:58:22.213Z,43.8
2018-08-13T06:08:35.809Z,43.7
2018-08-13T06:18:48.061Z,45.2
2018-08-13T06:29:01.973Z,47.4
2018-08-13T06:39:16.338Z,47.9
2018-08-13T06:50:01.893Z,46.4
2018-08-13T07:00:15.449Z,48.5
2018-08-13T07:10:29.666Z,49.1
2018-08-13T07:20:43.796Z,47.0
2018-08-13T07:30:57.753Z,49.2
2018-08-13T07:41:11.454Z,52.7
2018-08-13T07:51:25.520Z,50.7
2018-08-13T08:02:13.075Z,51.3
2018-08-13T08:13:50.031Z,53.5
2018-08-13T08:24:04.570Z,54.7
2018-08-13T08:35:08.176Z,52.4
2018-08-13T09:00:10.025Z,56.6
2018-08-13T09:10:24.789Z,55.8
2018-08-13T09:20:38.825Z,56.0
2018-08-13T09:30:52.562Z,55.3
2018-08-13T09:41:08.983Z,54.8
2018-08-13T09:52:17.724Z,54.7
2018-08-13T10:02:29.945Z,55.5
2018-08-13T10:12:59.291Z,50.0
2018-08-13T10:23:11.244Z,47.5
2018-08-13T10:44:18.560Z,47.7
2018-08-13T10:55:06.935Z,47.6
2018-08-13T11:05:51.868Z,47.6
2018-08-13T11:16:06.217Z,47.4
2018-08-13T11:26:21.749Z,47.7
2018-08-13T11:36:35.865Z,46.8
2018-08-13T11:46:51.141Z,44.7
2018-08-13T11:57:05.248Z,44.3
2018-08-13T12:07:16.352Z,44.6
2018-08-13T12:17:30.913Z,44.6
2018-08-13T12:27:45.621Z,45.0
2018-08-13T12:38:47.003Z,44.7
2018-08-13T12:50:38.548Z,44.0
2018-08-13T13:13:06.959Z,43.4
2018-08-13T13:24:02.379Z,43.7
2018-08-13T13:36:32.901Z,45.1
2018-08-13T13:48:21.038Z,45.7
2018-08-13T14:10:21.211Z,48.2
2018-08-13T14:20:42.327Z,49.5
2018-08-13T14:34:11.707Z,51.4
2018-08-13T14:45:14.772Z,53.0
2018-08-13T14:57:59.298Z,53.9
2018-08-13T15:09:10.673Z,55.7
2018-08-13T15:19:22.548Z,55.5
2018-08-13T15:29:36.567Z,55.0
2018-08-13T15:39:51.154Z,54.6
2018-08-13T15:51:38.125Z,55.3
2018-08-13T16:01:52.327Z,55.4
2018-08-13T16:12:09.483Z,55.9
2018-08-13T16:22:56.659Z,56.2
2018-08-13T16:33:12.227Z,56.8
2018-08-13T16:44:56.287Z,57.6
2018-08-13T16:55:11.072Z,58.0
2018-08-13T17:05:50.415Z,58.3
2018-08-13T17:26:45.324Z,58.4
2018-08-13T17:36:59.960Z,59.5
2018-08-13T17:47:47.941Z,59.2
2018-08-13T17:58:54.528Z,59.6
2018-08-13T18:36:36.161Z,60.4
2018-08-13T18:47:24.512Z,59.9
2018-08-13T19:10:02.810Z,61.3
2018-08-13T19:23:28.297Z,60.3
2018-08-13T19:34:19.359Z,60.5
2018-08-13T20:12:39.918Z,62.6
2018-08-13T20:22:54.451Z,63.6
2018-08-13T20:43:22.924Z,63.6
2018-08-13T20:53:37.500Z,64.5
2018-08-13T21:34:39.150Z,63.6
2018-08-13T21:44:55.549Z,64.1
2018-08-13T21:55:09.833Z,64.3
2018-08-13T22:05:24.292Z,64.0
2018-08-13T22:15:48.983Z,64.3
2018-08-13T22:26:37.753Z,64.6
2018-08-13T22:37:23.642Z,64.5
2018-08-13T22:47:36.766Z,65.4
2018-08-13T22:57:50.905Z,65.5
2018-08-13T23:08:04.021Z,66.2
2018-08-13T23:18:19.420Z,64.4
2018-08-13T23:29:04.952Z,66.3
2018-08-13T23:39:18.519Z,65.6
2018-08-13T23:49:33.018Z,64.9
2018-08-13T23:59:44.958Z,66.3
